Weifang, China
Current Conditions -  °F | °C
As of 4:00 AM on Sunday 26 Oct 2014 (Local Time) from ZSQD Reporting Station
Haze Haze  
Wind Chill: 64°   Ceiling: Unl
Heat Index: 64°   Visibility: 2.8mi
Dew Point: 61°   Wind: 9mph
Humidity: 88%   Direction: 160°SSE
Pressure: 30"   Gusts: NA
Location:  36.72°N, 119.1°E
Report Text: ZSQD 252000Z 16004MPS 4500 BR NSC 18/16 Q1016 BECMG TL21302800BR
Loading
Personal Weather Stations






























Interactive Weather Map
Tropical Storm Tracking
New forecast layout! Learn more

10-Day Weather Forecast

Advertisements
Track Severe Weather on mobile